sensor_id;sensor_type;location;lat;lon;timestamp;temperature;humidity
26703;DHT22;14316;51.074;3.704;2022-08-25T00:01:34;23.30;99.90
26703;DHT22;14316;51.074;3.704;2022-08-25T00:04:03;23.30;99.90
26703;DHT22;14316;51.074;3.704;2022-08-25T00:06:29;23.30;99.90
26703;DHT22;14316;51.074;3.704;2022-08-25T00:08:55;23.30;99.90
26703;DHT22;14316;51.074;3.704;2022-08-25T00:11:25;23.40;99.90
26703;DHT22;14316;51.074;3.704;2022-08-25T00:13:54;23.30;99.90
26703;DHT22;14316;51.074;3.704;2022-08-25T00:16:21;23.30;99.90
26703;DHT22;14316;51.074;3.704;2022-08-25T00:18:52;23.20;99.90
26703;DHT22;14316;51.074;3.704;2022-08-25T00:21:18;23.10;99.90
26703;DHT22;14316;51.074;3.704;2022-08-25T00:23:44;23.10;99.90
26703;DHT22;14316;51.074;3.704;2022-08-25T00:26:12;23.00;99.90
26703;DHT22;14316;51.074;3.704;2022-08-25T00:28:38;23.00;99.90
26703;DHT22;14316;51.074;3.704;2022-08-25T00:31:05;23.00;99.90
26703;DHT22;14316;51.074;3.704;2022-08-25T00:33:31;23.00;99.90
26703;DHT22;14316;51.074;3.704;2022-08-25T00:35:57;22.90;99.90
26703;DHT22;14316;51.074;3.704;2022-08-25T00:38:24;23.00;99.90
26703;DHT22;14316;51.074;3.704;2022-08-25T00:40:51;22.90;99.90
26703;DHT22;14316;51.074;3.704;2022-08-25T00:46:30;22.90;99.90
26703;DHT22;14316;51.074;3.704;2022-08-25T00:49:07;22.80;99.90
26703;DHT22;14316;51.074;3.704;2022-08-25T00:51:36;22.80;99.90
26703;DHT22;14316;51.074;3.704;2022-08-25T00:54:04;22.80;99.90
26703;DHT22;14316;51.074;3.704;2022-08-25T00:56:31;22.80;99.90
26703;DHT22;14316;51.074;3.704;2022-08-25T00:58:59;22.80;99.90
26703;DHT22;14316;51.074;3.704;2022-08-25T01:01:26;22.70;99.90
26703;DHT22;14316;51.074;3.704;2022-08-25T01:03:52;22.70;99.90
26703;DHT22;14316;51.074;3.704;2022-08-25T01:06:18;22.70;99.90
26703;DHT22;14316;51.074;3.704;2022-08-25T01:08:44;22.70;99.90
26703;DHT22;14316;51.074;3.704;2022-08-25T01:11:10;22.70;99.90
26703;DHT22;14316;51.074;3.704;2022-08-25T01:13:43;22.80;99.90
26703;DHT22;14316;51.074;3.704;2022-08-25T01:16:11;22.80;99.90
26703;DHT22;14316;51.074;3.704;2022-08-25T01:18:54;22.90;99.90
26703;DHT22;14316;51.074;3.704;2022-08-25T01:21:23;22.80;99.90
26703;DHT22;14316;51.074;3.704;2022-08-25T01:23:50;22.90;99.90
26703;DHT22;14316;51.074;3.704;2022-08-25T01:26:21;22.90;99.90
26703;DHT22;14316;51.074;3.704;2022-08-25T01:28:48;23.00;99.90
26703;DHT22;14316;51.074;3.704;2022-08-25T01:31:55;23.00;99.90
26703;DHT22;14316;51.074;3.704;2022-08-25T01:34:26;23.10;99.90
26703;DHT22;14316;51.074;3.704;2022-08-25T01:36:52;23.10;99.90
26703;DHT22;14316;51.074;3.704;2022-08-25T01:39:18;23.10;99.90
26703;DHT22;14316;51.074;3.704;2022-08-25T01:44:13;23.00;99.90
26703;DHT22;14316;51.074;3.704;2022-08-25T01:46:39;23.00;99.90
26703;DHT22;14316;51.074;3.704;2022-08-25T01:49:05;22.90;99.90
26703;DHT22;14316;51.074;3.704;2022-08-25T01:51:41;22.80;99.90
26703;DHT22;14316;51.074;3.704;2022-08-25T01:54:07;22.70;99.90
26703;DHT22;14316;51.074;3.704;2022-08-25T01:56:33;22.70;99.90
26703;DHT22;14316;51.074;3.704;2022-08-25T01:58:59;22.60;99.90
26703;DHT22;14316;51.074;3.704;2022-08-25T02:01:25;22.70;99.90
26703;DHT22;14316;51.074;3.704;2022-08-25T02:03:53;22.70;99.90
26703;DHT22;14316;51.074;3.704;2022-08-25T02:06:28;22.70;99.90
26703;DHT22;14316;51.074;3.704;2022-08-25T02:09:03;22.70;99.90
26703;DHT22;14316;51.074;3.704;2022-08-25T02:11:30;22.70;99.90
26703;DHT22;14316;51.074;3.704;2022-08-25T02:13:56;22.70;99.90
26703;DHT22;14316;51.074;3.704;2022-08-25T02:16:27;22.70;99.90
26703;DHT22;14316;51.074;3.704;2022-08-25T02:18:54;22.70;99.90
26703;DHT22;14316;51.074;3.704;2022-08-25T02:21:20;22.60;99.90
26703;DHT22;14316;51.074;3.704;2022-08-25T02:23:46;22.50;99.90
26703;DHT22;14316;51.074;3.704;2022-08-25T02:26:12;22.50;99.90
26703;DHT22;14316;51.074;3.704;2022-08-25T02:28:41;22.40;99.90
26703;DHT22;14316;51.074;3.704;2022-08-25T02:31:08;22.40;99.90
26703;DHT22;14316;51.074;3.704;2022-08-25T02:33:34;22.50;99.90
26703;DHT22;14316;51.074;3.704;2022-08-25T02:36:00;22.50;99.90
26703;DHT22;14316;51.074;3.704;2022-08-25T02:38:27;22.60;99.90
26703;DHT22;14316;51.074;3.704;2022-08-25T02:40:57;22.60;99.90
26703;DHT22;14316;51.074;3.704;2022-08-25T02:43:26;22.70;99.90
26703;DHT22;14316;51.074;3.704;2022-08-25T02:45:53;22.70;99.90
26703;DHT22;14316;51.074;3.704;2022-08-25T02:48:20;22.70;99.90
26703;DHT22;14316;51.074;3.704;2022-08-25T02:50:50;22.70;99.90
26703;DHT22;14316;51.074;3.704;2022-08-25T02:53:18;22.60;99.90
26703;DHT22;14316;51.074;3.704;2022-08-25T02:55:44;22.60;99.90
26703;DHT22;14316;51.074;3.704;2022-08-25T02:58:11;22.60;99.90
26703;DHT22;14316;51.074;3.704;2022-08-25T03:00:37;22.50;99.90
26703;DHT22;14316;51.074;3.704;2022-08-25T03:03:03;22.40;99.90
26703;DHT22;14316;51.074;3.704;2022-08-25T03:05:29;22.40;99.90
26703;DHT22;14316;51.074;3.704;2022-08-25T03:07:55;22.40;99.90
26703;DHT22;14316;51.074;3.704;2022-08-25T03:10:21;22.40;99.90
26703;DHT22;14316;51.074;3.704;2022-08-25T03:12:46;22.40;99.90
26703;DHT22;14316;51.074;3.704;2022-08-25T03:15:14;22.40;99.90
26703;DHT22;14316;51.074;3.704;2022-08-25T03:17:44;22.40;99.90
26703;DHT22;14316;51.074;3.704;2022-08-25T03:20:10;22.40;99.90
26703;DHT22;14316;51.074;3.704;2022-08-25T03:22:37;22.30;99.90
26703;DHT22;14316;51.074;3.704;2022-08-25T03:25:04;22.30;99.90
26703;DHT22;14316;51.074;3.704;2022-08-25T03:27:48;22.40;99.90
26703;DHT22;14316;51.074;3.704;2022-08-25T03:30:14;22.40;99.90
26703;DHT22;14316;51.074;3.704;2022-08-25T03:32:41;22.30;99.90
26703;DHT22;14316;51.074;3.704;2022-08-25T03:35:07;22.20;99.90
26703;DHT22;14316;51.074;3.704;2022-08-25T03:37:33;22.10;99.90
26703;DHT22;14316;51.074;3.704;2022-08-25T03:40:00;22.10;99.90
26703;DHT22;14316;51.074;3.704;2022-08-25T03:42:25;22.00;99.90
26703;DHT22;14316;51.074;3.704;2022-08-25T03:44:51;22.00;99.90
26703;DHT22;14316;51.074;3.704;2022-08-25T03:47:17;22.00;99.90
26703;DHT22;14316;51.074;3.704;2022-08-25T03:49:43;22.00;99.90
26703;DHT22;14316;51.074;3.704;2022-08-25T03:52:09;22.00;99.90
26703;DHT22;14316;51.074;3.704;2022-08-25T03:54:35;22.00;99.90
26703;DHT22;14316;51.074;3.704;2022-08-25T03:57:00;21.90;99.90
26703;DHT22;14316;51.074;3.704;2022-08-25T03:59:26;22.00;99.90
26703;DHT22;14316;51.074;3.704;2022-08-25T04:01:52;22.00;99.90
26703;DHT22;14316;51.074;3.704;2022-08-25T04:04:18;22.00;99.90
26703;DHT22;14316;51.074;3.704;2022-08-25T04:06:44;22.00;99.90
26703;DHT22;14316;51.074;3.704;2022-08-25T04:09:12;21.90;99.90
26703;DHT22;14316;51.074;3.704;2022-08-25T04:11:38;21.80;99.90
26703;DHT22;14316;51.074;3.704;2022-08-25T04:14:04;21.80;99.90
26703;DHT22;14316;51.074;3.704;2022-08-25T04:16:33;21.70;99.90
26703;DHT22;14316;51.074;3.704;2022-08-25T04:19:01;21.70;99.90
26703;DHT22;14316;51.074;3.704;2022-08-25T04:21:28;21.70;99.90
26703;DHT22;14316;51.074;3.704;2022-08-25T04:23:55;21.60;99.90
26703;DHT22;14316;51.074;3.704;2022-08-25T04:26:30;21.60;99.90
26703;DHT22;14316;51.074;3.704;2022-08-25T04:28:57;21.60;99.90
26703;DHT22;14316;51.074;3.704;2022-08-25T04:31:25;21.60;99.90
26703;DHT22;14316;51.074;3.704;2022-08-25T04:33:51;21.70;99.90
26703;DHT22;14316;51.074;3.704;2022-08-25T04:36:19;21.70;99.90
26703;DHT22;14316;51.074;3.704;2022-08-25T04:38:46;21.80;99.90
26703;DHT22;14316;51.074;3.704;2022-08-25T04:41:13;21.80;99.90
26703;DHT22;14316;51.074;3.704;2022-08-25T04:43:40;21.70;99.90
26703;DHT22;14316;51.074;3.704;2022-08-25T04:46:13;21.60;99.90
26703;DHT22;14316;51.074;3.704;2022-08-25T04:48:40;21.60;99.90
26703;DHT22;14316;51.074;3.704;2022-08-25T04:51:09;21.50;99.90
26703;DHT22;14316;51.074;3.704;2022-08-25T04:53:36;21.50;99.90
26703;DHT22;14316;51.074;3.704;2022-08-25T04:56:05;21.60;99.90
26703;DHT22;14316;51.074;3.704;2022-08-25T04:58:31;21.60;99.90
26703;DHT22;14316;51.074;3.704;2022-08-25T05:01:04;21.60;99.90
26703;DHT22;14316;51.074;3.704;2022-08-25T05:03:30;21.60;99.90
26703;DHT22;14316;51.074;3.704;2022-08-25T05:05:56;21.60;99.90
26703;DHT22;14316;51.074;3.704;2022-08-25T05:08:22;21.50;99.90
26703;DHT22;14316;51.074;3.704;2022-08-25T05:10:48;21.50;99.90
26703;DHT22;14316;51.074;3.704;2022-08-25T05:13:15;21.70;99.90
26703;DHT22;14316;51.074;3.704;2022-08-25T05:15:41;21.60;99.90
26703;DHT22;14316;51.074;3.704;2022-08-25T05:18:20;21.60;99.90
26703;DHT22;14316;51.074;3.704;2022-08-25T05:20:48;21.70;99.90
26703;DHT22;14316;51.074;3.704;2022-08-25T05:23:14;21.70;99.90
26703;DHT22;14316;51.074;3.704;2022-08-25T05:25:40;21.70;99.90
26703;DHT22;14316;51.074;3.704;2022-08-25T05:28:07;21.80;99.90
26703;DHT22;14316;51.074;3.704;2022-08-25T05:30:33;21.90;99.90
26703;DHT22;14316;51.074;3.704;2022-08-25T05:32:59;22.00;99.90
26703;DHT22;14316;51.074;3.704;2022-08-25T05:35:24;22.10;99.90
26703;DHT22;14316;51.074;3.704;2022-08-25T05:37:50;22.10;99.90
26703;DHT22;14316;51.074;3.704;2022-08-25T05:40:16;22.10;99.90
26703;DHT22;14316;51.074;3.704;2022-08-25T05:42:41;22.10;99.90
26703;DHT22;14316;51.074;3.704;2022-08-25T05:45:07;22.10;99.90
26703;DHT22;14316;51.074;3.704;2022-08-25T05:47:34;22.10;99.90
26703;DHT22;14316;51.074;3.704;2022-08-25T05:50:00;22.30;99.90
26703;DHT22;14316;51.074;3.704;2022-08-25T05:52:27;22.30;99.90
26703;DHT22;14316;51.074;3.704;2022-08-25T05:54:52;22.30;99.90
26703;DHT22;14316;51.074;3.704;2022-08-25T05:57:18;22.40;99.90
26703;DHT22;14316;51.074;3.704;2022-08-25T05:59:44;22.50;99.90
26703;DHT22;14316;51.074;3.704;2022-08-25T06:02:10;22.50;99.90
26703;DHT22;14316;51.074;3.704;2022-08-25T06:04:54;22.70;99.90
26703;DHT22;14316;51.074;3.704;2022-08-25T06:07:21;22.70;99.90
26703;DHT22;14316;51.074;3.704;2022-08-25T06:09:47;22.70;99.90
26703;DHT22;14316;51.074;3.704;2022-08-25T06:12:14;22.80;99.90
26703;DHT22;14316;51.074;3.704;2022-08-25T06:14:40;22.80;99.90
26703;DHT22;14316;51.074;3.704;2022-08-25T06:17:07;23.00;99.90
26703;DHT22;14316;51.074;3.704;2022-08-25T06:19:33;23.20;99.90
26703;DHT22;14316;51.074;3.704;2022-08-25T06:21:59;23.30;99.90
26703;DHT22;14316;51.074;3.704;2022-08-25T06:24:26;23.30;99.90
26703;DHT22;14316;51.074;3.704;2022-08-25T06:26:52;23.40;99.90
26703;DHT22;14316;51.074;3.704;2022-08-25T06:29:19;23.60;99.90
26703;DHT22;14316;51.074;3.704;2022-08-25T06:31:45;23.70;99.90
26703;DHT22;14316;51.074;3.704;2022-08-25T06:34:12;23.90;99.90
26703;DHT22;14316;51.074;3.704;2022-08-25T06:36:38;23.90;99.90
26703;DHT22;14316;51.074;3.704;2022-08-25T06:39:05;24.00;99.90
26703;DHT22;14316;51.074;3.704;2022-08-25T06:41:31;24.10;99.90
26703;DHT22;14316;51.074;3.704;2022-08-25T06:43:57;24.10;99.90
26703;DHT22;14316;51.074;3.704;2022-08-25T06:46:26;24.20;99.90
26703;DHT22;14316;51.074;3.704;2022-08-25T06:48:53;24.30;99.90
26703;DHT22;14316;51.074;3.704;2022-08-25T06:51:21;24.30;99.90
26703;DHT22;14316;51.074;3.704;2022-08-25T06:53:48;24.30;99.90
26703;DHT22;14316;51.074;3.704;2022-08-25T06:56:15;24.30;99.90
26703;DHT22;14316;51.074;3.704;2022-08-25T06:58:41;24.40;99.90
26703;DHT22;14316;51.074;3.704;2022-08-25T07:01:21;24.40;99.90
26703;DHT22;14316;51.074;3.704;2022-08-25T07:03:54;24.50;99.90
26703;DHT22;14316;51.074;3.704;2022-08-25T07:06:22;24.60;99.90
26703;DHT22;14316;51.074;3.704;2022-08-25T07:08:48;24.50;99.90
26703;DHT22;14316;51.074;3.704;2022-08-25T07:11:15;24.50;99.90
26703;DHT22;14316;51.074;3.704;2022-08-25T07:13:40;24.60;99.90
26703;DHT22;14316;51.074;3.704;2022-08-25T07:16:07;24.60;99.90
26703;DHT22;14316;51.074;3.704;2022-08-25T07:18:34;24.60;99.90
26703;DHT22;14316;51.074;3.704;2022-08-25T07:21:00;24.70;99.90
26703;DHT22;14316;51.074;3.704;2022-08-25T07:23:26;24.90;99.90
26703;DHT22;14316;51.074;3.704;2022-08-25T07:25:53;25.00;99.90
26703;DHT22;14316;51.074;3.704;2022-08-25T07:28:20;25.00;99.90
26703;DHT22;14316;51.074;3.704;2022-08-25T07:30:46;24.90;99.90
26703;DHT22;14316;51.074;3.704;2022-08-25T07:33:14;24.90;99.90
26703;DHT22;14316;51.074;3.704;2022-08-25T07:35:39;24.90;99.90
26703;DHT22;14316;51.074;3.704;2022-08-25T07:38:06;24.80;99.90
26703;DHT22;14316;51.074;3.704;2022-08-25T07:40:35;24.80;99.90
26703;DHT22;14316;51.074;3.704;2022-08-25T07:43:05;24.80;99.90
26703;DHT22;14316;51.074;3.704;2022-08-25T07:45:34;24.90;99.90
26703;DHT22;14316;51.074;3.704;2022-08-25T07:48:03;25.00;99.90
26703;DHT22;14316;51.074;3.704;2022-08-25T07:50:29;25.10;99.90
26703;DHT22;14316;51.074;3.704;2022-08-25T07:52:56;25.10;99.90
26703;DHT22;14316;51.074;3.704;2022-08-25T07:55:24;25.10;99.90
26703;DHT22;14316;51.074;3.704;2022-08-25T07:57:51;25.20;99.90
26703;DHT22;14316;51.074;3.704;2022-08-25T08:00:18;25.30;99.90
26703;DHT22;14316;51.074;3.704;2022-08-25T08:02:46;25.50;99.90
26703;DHT22;14316;51.074;3.704;2022-08-25T08:05:13;25.60;99.90
26703;DHT22;14316;51.074;3.704;2022-08-25T08:07:39;25.60;99.90
26703;DHT22;14316;51.074;3.704;2022-08-25T08:10:07;25.80;99.90
26703;DHT22;14316;51.074;3.704;2022-08-25T08:12:34;25.90;99.90
26703;DHT22;14316;51.074;3.704;2022-08-25T08:15:00;26.00;99.90
26703;DHT22;14316;51.074;3.704;2022-08-25T08:17:27;26.20;99.90
26703;DHT22;14316;51.074;3.704;2022-08-25T08:19:52;26.30;99.90
26703;DHT22;14316;51.074;3.704;2022-08-25T08:22:19;26.40;99.90
26703;DHT22;14316;51.074;3.704;2022-08-25T08:24:45;26.60;99.90
26703;DHT22;14316;51.074;3.704;2022-08-25T08:27:12;26.90;99.90
26703;DHT22;14316;51.074;3.704;2022-08-25T08:29:39;27.10;99.90
26703;DHT22;14316;51.074;3.704;2022-08-25T08:32:08;27.00;99.90
26703;DHT22;14316;51.074;3.704;2022-08-25T08:34:35;27.20;99.90
26703;DHT22;14316;51.074;3.704;2022-08-25T08:37:01;27.40;99.90
26703;DHT22;14316;51.074;3.704;2022-08-25T08:39:28;27.40;99.90
26703;DHT22;14316;51.074;3.704;2022-08-25T08:41:56;27.50;99.90
26703;DHT22;14316;51.074;3.704;2022-08-25T08:53:40;28.30;99.90
26703;DHT22;14316;51.074;3.704;2022-08-25T08:56:05;28.70;99.90
26703;DHT22;14316;51.074;3.704;2022-08-25T08:58:43;29.00;99.90
26703;DHT22;14316;51.074;3.704;2022-08-25T09:01:15;29.20;99.90
26703;DHT22;14316;51.074;3.704;2022-08-25T09:03:45;29.40;99.90
26703;DHT22;14316;51.074;3.704;2022-08-25T09:06:19;29.50;99.90
26703;DHT22;14316;51.074;3.704;2022-08-25T09:08:47;29.70;99.90
26703;DHT22;14316;51.074;3.704;2022-08-25T09:22:50;29.80;99.90
26703;DHT22;14316;51.074;3.704;2022-08-25T09:28:45;30.00;99.90
26703;DHT22;14316;51.074;3.704;2022-08-25T09:31:19;30.40;99.90
26703;DHT22;14316;51.074;3.704;2022-08-25T09:33:46;30.60;98.80
26703;DHT22;14316;51.074;3.704;2022-08-25T09:36:12;30.90;98.80
26703;DHT22;14316;51.074;3.704;2022-08-25T09:38:38;31.00;98.60
26703;DHT22;14316;51.074;3.704;2022-08-25T09:41:06;31.30;97.20
26703;DHT22;14316;51.074;3.704;2022-08-25T09:43:42;31.70;97.00
26703;DHT22;14316;51.074;3.704;2022-08-25T09:46:14;32.10;96.80
26703;DHT22;14316;51.074;3.704;2022-08-25T09:48:56;32.40;96.30
26703;DHT22;14316;51.074;3.704;2022-08-25T09:51:34;32.50;95.90
26703;DHT22;14316;51.074;3.704;2022-08-25T09:54:20;32.80;95.10
26703;DHT22;14316;51.074;3.704;2022-08-25T09:56:54;32.80;95.20
26703;DHT22;14316;51.074;3.704;2022-08-25T09:59:26;32.70;95.30
26703;DHT22;14316;51.074;3.704;2022-08-25T10:01:53;32.80;95.30
26703;DHT22;14316;51.074;3.704;2022-08-25T10:07:00;32.90;92.70
26703;DHT22;14316;51.074;3.704;2022-08-25T10:09:39;33.40;91.20
26703;DHT22;14316;51.074;3.704;2022-08-25T10:12:24;32.90;91.40
26703;DHT22;14316;51.074;3.704;2022-08-25T10:14:53;33.00;91.30
26703;DHT22;14316;51.074;3.704;2022-08-25T10:17:32;32.90;90.00
26703;DHT22;14316;51.074;3.704;2022-08-25T10:22:37;33.10;88.70
26703;DHT22;14316;51.074;3.704;2022-08-25T10:25:06;34.00;83.90
26703;DHT22;14316;51.074;3.704;2022-08-25T10:27:49;34.90;79.40
26703;DHT22;14316;51.074;3.704;2022-08-25T10:38:57;35.30;72.30
26703;DHT22;14316;51.074;3.704;2022-08-25T10:41:49;34.60;73.50
26703;DHT22;14316;51.074;3.704;2022-08-25T10:44:28;35.10;72.50
26703;DHT22;14316;51.074;3.704;2022-08-25T10:50:28;33.50;71.70
26703;DHT22;14316;51.074;3.704;2022-08-25T10:55:54;32.80;70.70
26703;DHT22;14316;51.074;3.704;2022-08-25T11:06:49;31.80;79.10
26703;DHT22;14316;51.074;3.704;2022-08-25T11:09:22;31.60;81.70
26703;DHT22;14316;51.074;3.704;2022-08-25T11:11:59;31.50;82.50
26703;DHT22;14316;51.074;3.704;2022-08-25T11:14:37;31.60;82.60
26703;DHT22;14316;51.074;3.704;2022-08-25T11:17:19;31.80;83.60
26703;DHT22;14316;51.074;3.704;2022-08-25T11:19:50;32.20;83.60
26703;DHT22;14316;51.074;3.704;2022-08-25T11:22:43;32.60;83.40
26703;DHT22;14316;51.074;3.704;2022-08-25T11:28:10;33.10;83.90
26703;DHT22;14316;51.074;3.704;2022-08-25T11:30:37;33.00;82.50
26703;DHT22;14316;51.074;3.704;2022-08-25T11:33:04;33.70;83.00
26703;DHT22;14316;51.074;3.704;2022-08-25T11:40:54;34.60;80.30
26703;DHT22;14316;51.074;3.704;2022-08-25T11:44:00;34.60;79.90
26703;DHT22;14316;51.074;3.704;2022-08-25T11:51:45;33.60;81.30
26703;DHT22;14316;51.074;3.704;2022-08-25T11:54:26;33.20;82.80
26703;DHT22;14316;51.074;3.704;2022-08-25T11:57:00;32.60;84.70
26703;DHT22;14316;51.074;3.704;2022-08-25T12:04:59;33.50;85.90
26703;DHT22;14316;51.074;3.704;2022-08-25T12:07:56;34.70;84.50
26703;DHT22;14316;51.074;3.704;2022-08-25T12:11:01;35.70;85.60
26703;DHT22;14316;51.074;3.704;2022-08-25T12:13:47;38.90;83.40
26703;DHT22;14316;51.074;3.704;2022-08-25T12:19:36;39.30;83.30
26703;DHT22;14316;51.074;3.704;2022-08-25T12:27:28;39.30;81.50
26703;DHT22;14316;51.074;3.704;2022-08-25T12:33:14;39.60;79.70
26703;DHT22;14316;51.074;3.704;2022-08-25T12:36:06;40.10;80.90
26703;DHT22;14316;51.074;3.704;2022-08-25T12:41:21;41.30;76.40
26703;DHT22;14316;51.074;3.704;2022-08-25T12:43:53;43.10;73.30
26703;DHT22;14316;51.074;3.704;2022-08-25T12:46:36;43.30;70.80
26703;DHT22;14316;51.074;3.704;2022-08-25T12:51:50;45.00;68.10
26703;DHT22;14316;51.074;3.704;2022-08-25T12:57:12;45.80;67.30
26703;DHT22;14316;51.074;3.704;2022-08-25T12:59:49;44.30;61.40
26703;DHT22;14316;51.074;3.704;2022-08-25T13:02:41;42.10;63.20
26703;DHT22;14316;51.074;3.704;2022-08-25T13:10:49;46.10;59.50
26703;DHT22;14316;51.074;3.704;2022-08-25T13:13:37;44.30;57.40
26703;DHT22;14316;51.074;3.704;2022-08-25T13:16:17;44.90;58.60
26703;DHT22;14316;51.074;3.704;2022-08-25T13:18:45;46.00;55.80
26703;DHT22;14316;51.074;3.704;2022-08-25T13:21:18;43.00;58.70
26703;DHT22;14316;51.074;3.704;2022-08-25T13:23:51;42.00;59.50
26703;DHT22;14316;51.074;3.704;2022-08-25T13:28:57;42.20;61.20
26703;DHT22;14316;51.074;3.704;2022-08-25T13:31:24;40.00;62.50
26703;DHT22;14316;51.074;3.704;2022-08-25T13:36:20;41.80;63.50
26703;DHT22;14316;51.074;3.704;2022-08-25T13:39:33;43.10;64.70
26703;DHT22;14316;51.074;3.704;2022-08-25T13:42:02;44.00;62.10
26703;DHT22;14316;51.074;3.704;2022-08-25T13:44:34;44.10;62.30
26703;DHT22;14316;51.074;3.704;2022-08-25T13:47:16;43.60;63.10
26703;DHT22;14316;51.074;3.704;2022-08-25T13:49:44;42.90;66.20
26703;DHT22;14316;51.074;3.704;2022-08-25T13:52:28;43.10;65.70
26703;DHT22;14316;51.074;3.704;2022-08-25T13:54:58;41.90;66.10
26703;DHT22;14316;51.074;3.704;2022-08-25T13:57:27;40.90;68.10
26703;DHT22;14316;51.074;3.704;2022-08-25T13:59:59;41.20;67.30
26703;DHT22;14316;51.074;3.704;2022-08-25T14:02:58;41.10;67.70
26703;DHT22;14316;51.074;3.704;2022-08-25T14:07:58;41.40;69.60
26703;DHT22;14316;51.074;3.704;2022-08-25T14:10:43;41.20;68.50
26703;DHT22;14316;51.074;3.704;2022-08-25T14:13:27;41.20;70.50
26703;DHT22;14316;51.074;3.704;2022-08-25T14:15:53;40.90;69.10
26703;DHT22;14316;51.074;3.704;2022-08-25T14:18:26;41.10;68.90
26703;DHT22;14316;51.074;3.704;2022-08-25T14:20:55;39.80;70.10
26703;DHT22;14316;51.074;3.704;2022-08-25T14:23:27;39.50;72.60
26703;DHT22;14316;51.074;3.704;2022-08-25T14:25:56;39.20;74.00
26703;DHT22;14316;51.074;3.704;2022-08-25T14:28:29;39.40;73.80
26703;DHT22;14316;51.074;3.704;2022-08-25T14:31:05;38.50;72.70
26703;DHT22;14316;51.074;3.704;2022-08-25T14:33:41;38.40;73.80
26703;DHT22;14316;51.074;3.704;2022-08-25T14:36:10;38.50;73.70
26703;DHT22;14316;51.074;3.704;2022-08-25T14:38:36;37.90;75.70
26703;DHT22;14316;51.074;3.704;2022-08-25T14:41:04;37.70;76.90
26703;DHT22;14316;51.074;3.704;2022-08-25T14:43:31;37.40;76.10
26703;DHT22;14316;51.074;3.704;2022-08-25T14:45:58;37.30;76.40
26703;DHT22;14316;51.074;3.704;2022-08-25T14:48:28;37.50;76.70
26703;DHT22;14316;51.074;3.704;2022-08-25T14:50:56;37.60;76.50
26703;DHT22;14316;51.074;3.704;2022-08-25T14:53:23;38.10;76.70
26703;DHT22;14316;51.074;3.704;2022-08-25T14:55:49;39.00;74.90
26703;DHT22;14316;51.074;3.704;2022-08-25T14:58:20;39.10;74.80
26703;DHT22;14316;51.074;3.704;2022-08-25T15:00:46;38.80;74.90
26703;DHT22;14316;51.074;3.704;2022-08-25T15:03:19;39.40;74.70
26703;DHT22;14316;51.074;3.704;2022-08-25T15:05:48;39.70;74.80
26703;DHT22;14316;51.074;3.704;2022-08-25T15:08:14;39.30;74.10
26703;DHT22;14316;51.074;3.704;2022-08-25T15:10:59;39.60;73.20
26703;DHT22;14316;51.074;3.704;2022-08-25T15:13:25;39.70;73.60
26703;DHT22;14316;51.074;3.704;2022-08-25T15:15:52;39.90;73.60
26703;DHT22;14316;51.074;3.704;2022-08-25T15:18:19;40.50;73.30
26703;DHT22;14316;51.074;3.704;2022-08-25T15:20:45;38.60;74.00
26703;DHT22;14316;51.074;3.704;2022-08-25T15:23:10;38.40;75.20
26703;DHT22;14316;51.074;3.704;2022-08-25T15:25:37;38.80;75.80
26703;DHT22;14316;51.074;3.704;2022-08-25T15:28:05;39.20;75.70
26703;DHT22;14316;51.074;3.704;2022-08-25T15:30:34;38.90;75.80
26703;DHT22;14316;51.074;3.704;2022-08-25T15:33:01;38.90;74.60
26703;DHT22;14316;51.074;3.704;2022-08-25T15:35:27;38.80;74.80
26703;DHT22;14316;51.074;3.704;2022-08-25T15:37:52;38.10;76.80
26703;DHT22;14316;51.074;3.704;2022-08-25T15:40:18;38.30;76.20
26703;DHT22;14316;51.074;3.704;2022-08-25T15:42:44;37.60;78.60
26703;DHT22;14316;51.074;3.704;2022-08-25T15:45:10;37.20;78.70
26703;DHT22;14316;51.074;3.704;2022-08-25T15:47:36;37.30;77.60
26703;DHT22;14316;51.074;3.704;2022-08-25T15:50:11;37.00;79.00
26703;DHT22;14316;51.074;3.704;2022-08-25T15:52:39;37.20;80.20
26703;DHT22;14316;51.074;3.704;2022-08-25T15:55:05;37.50;78.40
26703;DHT22;14316;51.074;3.704;2022-08-25T15:57:31;36.90;79.60
26703;DHT22;14316;51.074;3.704;2022-08-25T15:59:57;35.90;80.60
26703;DHT22;14316;51.074;3.704;2022-08-25T16:02:23;35.70;83.00
26703;DHT22;14316;51.074;3.704;2022-08-25T16:04:50;35.40;82.60
26703;DHT22;14316;51.074;3.704;2022-08-25T16:07:17;35.80;82.50
26703;DHT22;14316;51.074;3.704;2022-08-25T16:09:44;34.90;83.20
26703;DHT22;14316;51.074;3.704;2022-08-25T16:12:10;34.40;86.30
26703;DHT22;14316;51.074;3.704;2022-08-25T16:14:36;34.30;88.00
26703;DHT22;14316;51.074;3.704;2022-08-25T16:17:02;34.10;88.00
26703;DHT22;14316;51.074;3.704;2022-08-25T16:19:37;33.20;90.00
26703;DHT22;14316;51.074;3.704;2022-08-25T16:22:03;31.90;91.90
26703;DHT22;14316;51.074;3.704;2022-08-25T16:24:29;31.30;93.70
26703;DHT22;14316;51.074;3.704;2022-08-25T16:26:55;30.50;96.60
26703;DHT22;14316;51.074;3.704;2022-08-25T16:29:28;30.30;99.60
26703;DHT22;14316;51.074;3.704;2022-08-25T16:31:56;29.90;99.90
26703;DHT22;14316;51.074;3.704;2022-08-25T16:34:24;29.50;99.90
26703;DHT22;14316;51.074;3.704;2022-08-25T16:36:52;29.20;99.90
26703;DHT22;14316;51.074;3.704;2022-08-25T16:39:21;28.90;99.90
26703;DHT22;14316;51.074;3.704;2022-08-25T16:41:47;28.60;99.90
26703;DHT22;14316;51.074;3.704;2022-08-25T16:44:14;28.50;99.90
26703;DHT22;14316;51.074;3.704;2022-08-25T16:46:39;28.50;99.90
26703;DHT22;14316;51.074;3.704;2022-08-25T16:49:11;28.30;99.90
26703;DHT22;14316;51.074;3.704;2022-08-25T16:51:38;28.10;99.90
26703;DHT22;14316;51.074;3.704;2022-08-25T16:54:05;27.90;99.90
26703;DHT22;14316;51.074;3.704;2022-08-25T16:56:50;27.80;99.90
26703;DHT22;14316;51.074;3.704;2022-08-25T16:59:16;27.80;99.90
26703;DHT22;14316;51.074;3.704;2022-08-25T17:01:42;27.60;99.90
26703;DHT22;14316;51.074;3.704;2022-08-25T17:04:09;27.30;99.90
26703;DHT22;14316;51.074;3.704;2022-08-25T17:06:38;26.60;99.90
26703;DHT22;14316;51.074;3.704;2022-08-25T17:09:07;26.50;99.90
26703;DHT22;14316;51.074;3.704;2022-08-25T17:11:46;26.40;99.90
26703;DHT22;14316;51.074;3.704;2022-08-25T17:14:17;26.40;99.90
26703;DHT22;14316;51.074;3.704;2022-08-25T17:16:43;25.90;99.90
26703;DHT22;14316;51.074;3.704;2022-08-25T17:19:11;25.70;99.90
26703;DHT22;14316;51.074;3.704;2022-08-25T17:21:40;25.90;99.90
26703;DHT22;14316;51.074;3.704;2022-08-25T17:24:09;26.10;99.90
26703;DHT22;14316;51.074;3.704;2022-08-25T17:26:40;26.20;99.90
26703;DHT22;14316;51.074;3.704;2022-08-25T17:29:07;26.00;99.90
26703;DHT22;14316;51.074;3.704;2022-08-25T17:31:33;26.20;99.90
26703;DHT22;14316;51.074;3.704;2022-08-25T17:34:01;26.20;99.90
26703;DHT22;14316;51.074;3.704;2022-08-25T17:36:27;26.10;99.90